createdAt,value
2022-07-30T00:01:18.016Z,20.97
2022-07-30T00:03:45.053Z,20.96
2022-07-30T00:06:12.085Z,20.93
2022-07-30T00:08:39.125Z,20.90
2022-07-30T00:11:06.221Z,20.89
2022-07-30T00:13:33.205Z,20.83
2022-07-30T00:16:00.214Z,20.85
2022-07-30T00:18:27.320Z,20.78
2022-07-30T00:20:54.349Z,20.76
2022-07-30T00:23:23.463Z,20.80
2022-07-30T00:25:50.485Z,20.69
2022-07-30T00:28:17.466Z,20.76
2022-07-30T00:30:44.489Z,20.68
2022-07-30T00:33:11.521Z,20.72
2022-07-30T00:35:39.777Z,20.72
2022-07-30T00:38:06.801Z,20.70
2022-07-30T00:40:33.976Z,20.64
2022-07-30T00:43:01.016Z,20.69
2022-07-30T00:45:28.144Z,20.66
2022-07-30T00:47:55.170Z,20.64
2022-07-30T00:50:22.165Z,20.64
2022-07-30T00:52:49.334Z,20.58
2022-07-30T00:55:16.643Z,20.57
2022-07-30T00:57:44.801Z,20.57
2022-07-30T01:00:16.101Z,20.55
2022-07-30T01:02:43.934Z,20.60
2022-07-30T01:05:11.938Z,20.58
2022-07-30T01:07:39.292Z,20.59
2022-07-30T01:10:10.316Z,20.60
2022-07-30T01:12:38.885Z,20.58
2022-07-30T01:15:09.736Z,20.50
2022-07-30T01:17:38.072Z,20.54
2022-07-30T01:20:32.081Z,20.46
2022-07-30T01:23:14.687Z,20.50
2022-07-30T01:26:02.107Z,20.48
2022-07-30T01:28:43.125Z,20.46
2022-07-30T01:31:13.866Z,20.42
2022-07-30T01:33:46.705Z,20.44
2022-07-30T01:36:18.134Z,20.47
2022-07-30T01:38:48.099Z,20.44
2022-07-30T01:41:18.140Z,20.44
2022-07-30T01:43:47.090Z,20.43
2022-07-30T01:46:17.322Z,20.41
2022-07-30T01:48:46.009Z,20.40
2022-07-30T01:51:14.402Z,20.38
2022-07-30T01:53:43.618Z,20.32
2022-07-30T01:56:16.886Z,20.32
2022-07-30T01:58:48.087Z,20.35
2022-07-30T02:01:15.701Z,20.36
2022-07-30T02:03:42.959Z,20.29
2022-07-30T02:06:23.263Z,20.37
2022-07-30T02:09:03.006Z,20.27
2022-07-30T02:12:05.590Z,20.30
2022-07-30T02:14:55.689Z,20.32
2022-07-30T02:17:39.588Z,20.27
2022-07-30T02:20:13.477Z,20.24
2022-07-30T02:22:46.175Z,20.27
2022-07-30T02:25:20.159Z,20.26
2022-07-30T02:27:54.763Z,20.26
2022-07-30T02:30:27.729Z,20.20
2022-07-30T02:33:02.168Z,20.24
2022-07-30T02:35:31.596Z,20.23
2022-07-30T02:38:02.014Z,20.17
2022-07-30T02:40:29.198Z,20.19
2022-07-30T02:43:01.577Z,20.20
2022-07-30T02:45:30.729Z,20.19
2022-07-30T02:48:09.400Z,20.16
2022-07-30T02:50:38.003Z,20.17
2022-07-30T02:53:12.013Z,20.16
2022-07-30T02:55:40.900Z,20.11
2022-07-30T02:58:09.771Z,20.12
2022-07-30T03:00:38.794Z,20.12
2022-07-30T03:03:07.908Z,20.06
2022-07-30T03:05:36.252Z,20.11
2022-07-30T03:08:05.197Z,20.09
2022-07-30T03:10:34.431Z,20.13
2022-07-30T03:13:04.300Z,20.13
2022-07-30T03:15:34.543Z,20.12
2022-07-30T03:18:08.844Z,20.09
2022-07-30T03:20:37.757Z,20.15
2022-07-30T03:23:06.252Z,20.16
2022-07-30T03:25:35.624Z,20.14
2022-07-30T03:28:05.878Z,20.10
2022-07-30T03:30:35.074Z,20.12
2022-07-30T03:33:03.404Z,20.12
2022-07-30T03:35:32.047Z,20.11
2022-07-30T03:38:00.406Z,20.11
2022-07-30T03:40:29.365Z,20.11
2022-07-30T03:42:56.746Z,20.11
2022-07-30T03:45:24.991Z,20.13
2022-07-30T03:47:53.401Z,20.12
2022-07-30T03:50:20.431Z,20.17
2022-07-30T03:52:48.809Z,20.16
2022-07-30T03:55:16.949Z,20.26
2022-07-30T03:57:44.197Z,20.29
2022-07-30T04:00:15.852Z,20.25
2022-07-30T04:02:47.650Z,20.31
2022-07-30T04:05:16.185Z,20.32
2022-07-30T04:07:45.148Z,20.35
2022-07-30T04:10:14.658Z,20.48
2022-07-30T04:12:42.330Z,20.64
2022-07-30T04:16:37.101Z,20.93
2022-07-30T04:18:03.020Z,21.20
2022-07-30T04:20:42.112Z,21.42
2022-07-30T04:23:11.880Z,21.64
2022-07-30T04:25:42.312Z,21.90
2022-07-30T04:28:11.823Z,22.13
2022-07-30T04:30:39.170Z,22.27
2022-07-30T04:33:08.272Z,22.38
2022-07-30T04:35:50.970Z,22.30
2022-07-30T04:38:20.050Z,22.12
2022-07-30T04:40:47.955Z,22.03
2022-07-30T04:43:16.009Z,21.91
2022-07-30T04:45:43.584Z,21.74
2022-07-30T04:48:10.785Z,21.69
2022-07-30T04:50:44.408Z,21.60
2022-07-30T04:53:12.369Z,21.54
2022-07-30T04:55:46.683Z,21.46
2022-07-30T04:58:16.704Z,21.49
2022-07-30T05:00:45.722Z,21.40
2022-07-30T05:03:15.868Z,21.36
2022-07-30T05:05:44.886Z,21.34
2022-07-30T05:08:13.262Z,21.30
2022-07-30T05:10:41.552Z,21.25
2022-07-30T05:13:16.143Z,21.18
2022-07-30T05:15:46.923Z,21.18
2022-07-30T05:18:14.006Z,21.17
2022-07-30T05:20:41.179Z,21.16
2022-07-30T05:23:08.761Z,21.14
2022-07-30T05:25:35.789Z,21.15
2022-07-30T05:28:02.900Z,21.15
2022-07-30T05:30:29.917Z,21.14
2022-07-30T05:32:56.925Z,21.18
2022-07-30T05:35:23.956Z,21.19
2022-07-30T05:37:50.893Z,21.21
2022-07-30T05:40:17.901Z,21.14
2022-07-30T05:42:44.912Z,21.16
2022-07-30T05:45:12.069Z,21.16
2022-07-30T05:47:39.151Z,21.20
2022-07-30T05:50:06.755Z,21.19
2022-07-30T05:52:33.950Z,21.24
2022-07-30T05:55:01.011Z,21.24
2022-07-30T05:57:28.109Z,21.21
2022-07-30T05:59:55.312Z,21.19
2022-07-30T06:02:24.427Z,21.21
2022-07-30T06:04:52.982Z,21.22
2022-07-30T06:07:20.041Z,21.22
2022-07-30T06:09:47.080Z,21.24
2022-07-30T06:12:14.136Z,21.29
2022-07-30T06:14:41.206Z,21.34
2022-07-30T06:17:08.377Z,21.42
2022-07-30T06:19:35.389Z,21.44
2022-07-30T06:22:06.178Z,21.51
2022-07-30T06:24:34.914Z,21.56
2022-07-30T06:27:02.400Z,21.60
2022-07-30T06:29:29.786Z,21.64
2022-07-30T06:31:56.880Z,21.67
2022-07-30T06:34:23.907Z,21.75
2022-07-30T06:36:51.198Z,21.78
2022-07-30T06:39:56.251Z,21.78
2022-07-30T06:42:05.697Z,21.91
2022-07-30T06:44:32.665Z,21.98
2022-07-30T06:47:03.034Z,22.03
2022-07-30T06:49:35.796Z,22.03
2022-07-30T06:52:03.839Z,22.02
2022-07-30T06:54:30.820Z,22.01
2022-07-30T06:56:58.945Z,22.03
2022-07-30T06:59:27.635Z,22.07
2022-07-30T07:01:54.773Z,22.10
2022-07-30T07:04:22.033Z,22.12
2022-07-30T07:06:49.161Z,22.13
2022-07-30T07:09:16.164Z,22.20
2022-07-30T07:11:43.530Z,22.32
2022-07-30T07:14:10.545Z,22.39
2022-07-30T07:16:37.634Z,22.48
2022-07-30T07:19:04.752Z,22.54
2022-07-30T07:21:31.916Z,22.60
2022-07-30T07:24:00.543Z,22.58
2022-07-30T07:26:27.564Z,22.62
2022-07-30T07:28:54.608Z,22.65
2022-07-30T07:32:04.506Z,22.76
2022-07-30T07:34:11.453Z,22.86
2022-07-30T07:36:41.259Z,22.97
2022-07-30T07:39:09.835Z,23.09
2022-07-30T07:41:48.330Z,23.14
2022-07-30T07:44:16.423Z,23.32
2022-07-30T07:46:43.523Z,23.46
2022-07-30T07:49:10.701Z,23.60
2022-07-30T07:51:47.152Z,23.68
2022-07-30T07:54:22.106Z,23.88
2022-07-30T07:56:56.111Z,23.98
2022-07-30T07:59:27.781Z,24.02
2022-07-30T08:02:04.416Z,24.06
2022-07-30T08:04:31.474Z,24.01
2022-07-30T08:06:58.799Z,23.97
2022-07-30T08:09:25.985Z,23.99
2022-07-30T08:12:08.191Z,23.95
2022-07-30T08:14:35.186Z,24.02
2022-07-30T08:17:02.541Z,24.01
2022-07-30T08:19:29.775Z,24.03
2022-07-30T08:21:59.371Z,24.06
2022-07-30T08:24:26.883Z,24.11
2022-07-30T08:26:54.267Z,24.16
2022-07-30T08:29:21.310Z,24.30
2022-07-30T08:31:48.636Z,24.46
2022-07-30T08:34:15.779Z,24.58
2022-07-30T08:36:42.755Z,24.68
2022-07-30T08:39:10.035Z,24.79
2022-07-30T08:41:37.547Z,24.83
2022-07-30T08:44:12.654Z,24.89
2022-07-30T08:46:47.282Z,24.90
2022-07-30T08:49:16.037Z,24.94
2022-07-30T08:51:43.394Z,25.06
2022-07-30T08:54:11.333Z,25.17
2022-07-30T08:56:38.627Z,25.27
2022-07-30T08:59:05.777Z,25.39
2022-07-30T09:01:32.788Z,25.49
2022-07-30T09:03:59.822Z,25.59
2022-07-30T09:06:27.263Z,25.69
2022-07-30T09:08:54.603Z,25.76
2022-07-30T09:11:22.723Z,25.88
2022-07-30T09:13:50.941Z,25.93
2022-07-30T09:16:24.448Z,25.99
2022-07-30T09:18:54.674Z,26.11
2022-07-30T09:21:24.670Z,26.21
2022-07-30T09:24:15.020Z,26.26
2022-07-30T09:27:05.415Z,26.32
2022-07-30T09:29:33.058Z,26.37
2022-07-30T09:32:09.403Z,26.52
2022-07-30T09:34:39.385Z,26.62
2022-07-30T09:37:09.422Z,26.73
2022-07-30T09:39:40.153Z,26.81
2022-07-30T09:42:21.574Z,26.89
2022-07-30T09:44:49.090Z,26.93
2022-07-30T09:47:36.595Z,26.95
2022-07-30T09:50:31.023Z,26.90
2022-07-30T09:53:09.552Z,26.79
2022-07-30T09:55:41.409Z,26.77
2022-07-30T09:58:12.666Z,26.80
2022-07-30T10:00:42.394Z,26.79
2022-07-30T10:03:21.609Z,26.90
2022-07-30T10:06:03.632Z,27.05
2022-07-30T10:08:51.483Z,27.19
2022-07-30T10:11:24.025Z,27.32
2022-07-30T10:13:55.183Z,27.38
2022-07-30T10:16:26.378Z,27.34
2022-07-30T10:18:57.358Z,27.29
2022-07-30T10:21:26.560Z,27.25
2022-07-30T10:23:54.352Z,27.17
2022-07-30T10:26:22.262Z,27.15
2022-07-30T10:28:51.092Z,27.14
2022-07-30T10:31:46.800Z,27.19
2022-07-30T10:34:07.784Z,27.22
2022-07-30T10:36:35.924Z,27.22
2022-07-30T10:39:05.386Z,27.43
2022-07-30T10:42:22.031Z,27.50
2022-07-30T10:45:18.063Z,27.50
2022-07-30T10:47:48.842Z,27.50
2022-07-30T10:50:22.222Z,27.57
2022-07-30T10:53:03.784Z,27.71
2022-07-30T10:55:39.208Z,27.79
2022-07-30T10:58:12.219Z,27.86
2022-07-30T11:00:54.615Z,27.89
2022-07-30T11:03:41.444Z,27.92
2022-07-30T11:06:15.331Z,27.98
2022-07-30T11:08:48.132Z,28.01
2022-07-30T11:11:20.915Z,27.99
2022-07-30T11:14:07.937Z,28.00
2022-07-30T11:16:35.192Z,28.06
2022-07-30T11:19:54.858Z,28.17
2022-07-30T11:22:25.136Z,28.29
2022-07-30T11:24:52.758Z,28.30
2022-07-30T11:27:42.333Z,28.30
2022-07-30T11:30:23.539Z,28.35
2022-07-30T11:32:54.667Z,28.42
2022-07-30T11:35:34.624Z,28.55
2022-07-30T11:38:09.563Z,28.62
2022-07-30T11:40:48.606Z,28.64
2022-07-30T11:43:35.261Z,28.66
2022-07-30T11:46:06.378Z,28.71
2022-07-30T11:48:35.100Z,28.72
2022-07-30T11:51:04.080Z,28.73
2022-07-30T11:53:32.023Z,28.65
2022-07-30T11:56:01.740Z,28.57
2022-07-30T11:58:39.633Z,28.48
2022-07-30T12:01:14.017Z,28.42
2022-07-30T12:03:44.537Z,28.43
2022-07-30T12:06:20.580Z,28.42
2022-07-30T12:08:53.889Z,28.40
2022-07-30T12:11:23.620Z,28.10
2022-07-30T12:13:59.613Z,28.33
2022-07-30T12:16:28.500Z,28.28
2022-07-30T12:19:00.700Z,28.24
2022-07-30T12:21:27.729Z,28.16
2022-07-30T12:24:04.250Z,28.27
2022-07-30T12:26:34.168Z,28.33
2022-07-30T12:29:05.361Z,28.37
2022-07-30T12:31:33.862Z,28.33
2022-07-30T12:34:01.014Z,28.32
2022-07-30T12:36:35.761Z,28.35
2022-07-30T12:39:06.612Z,28.42
2022-07-30T12:41:49.535Z,28.47
2022-07-30T12:44:37.189Z,28.53
2022-07-30T12:47:07.543Z,28.57
2022-07-30T12:49:37.569Z,28.63
2022-07-30T12:52:13.490Z,28.67
2022-07-30T12:54:45.555Z,28.81
2022-07-30T12:57:12.773Z,28.93
2022-07-30T12:59:39.980Z,28.94
2022-07-30T13:02:07.401Z,28.97
2022-07-30T13:04:39.766Z,29.00
2022-07-30T13:07:12.388Z,29.00
2022-07-30T13:09:40.204Z,29.03
2022-07-30T13:12:11.642Z,29.00
2022-07-30T13:14:38.872Z,29.00
2022-07-30T13:17:07.117Z,29.00
2022-07-30T13:19:34.226Z,29.03
2022-07-30T13:22:01.248Z,29.02
2022-07-30T13:24:28.324Z,29.08
2022-07-30T13:26:55.309Z,29.12
2022-07-30T13:29:22.562Z,29.11
2022-07-30T13:31:49.675Z,29.10
2022-07-30T13:34:16.701Z,29.12
2022-07-30T13:36:43.770Z,29.10
2022-07-30T13:39:12.020Z,29.08
2022-07-30T13:41:41.645Z,29.04
2022-07-30T13:44:08.830Z,28.96
2022-07-30T13:46:36.281Z,28.74
2022-07-30T13:49:04.579Z,28.70
2022-07-30T13:51:31.704Z,28.63
2022-07-30T13:53:58.668Z,28.63
2022-07-30T13:56:25.645Z,28.63
2022-07-30T13:58:52.793Z,28.67
2022-07-30T14:01:19.947Z,28.74
2022-07-30T14:03:50.931Z,28.78
2022-07-30T14:06:19.642Z,28.72
2022-07-30T14:08:46.821Z,28.62
2022-07-30T14:11:14.342Z,28.53
2022-07-30T14:13:41.743Z,28.55
2022-07-30T14:16:22.999Z,28.52
2022-07-30T14:18:57.477Z,28.49
2022-07-30T14:21:25.081Z,28.44
2022-07-30T14:23:52.114Z,28.46
2022-07-30T14:26:19.099Z,28.43
2022-07-30T14:28:46.163Z,28.44
2022-07-30T14:31:13.135Z,28.43
2022-07-30T14:33:40.176Z,28.52
2022-07-30T14:36:07.305Z,28.55
2022-07-30T14:38:34.322Z,28.54
2022-07-30T14:41:01.278Z,28.46
2022-07-30T14:43:28.261Z,28.43
2022-07-30T14:45:55.224Z,28.41
2022-07-30T14:48:22.270Z,28.41
2022-07-30T14:51:12.781Z,28.41
2022-07-30T14:53:36.329Z,28.38
2022-07-30T14:56:03.706Z,28.43
2022-07-30T14:58:30.775Z,28.42
2022-07-30T15:00:57.845Z,28.42
2022-07-30T15:03:25.927Z,28.41
2022-07-30T15:05:53.198Z,28.41
2022-07-30T15:08:20.640Z,28.46
2022-07-30T15:10:47.739Z,28.46
2022-07-30T15:13:15.504Z,28.37
2022-07-30T15:15:44.553Z,28.38
2022-07-30T15:18:13.965Z,28.35
2022-07-30T15:20:41.012Z,28.32
2022-07-30T15:23:14.342Z,28.32
2022-07-30T15:25:42.381Z,28.32
2022-07-30T15:28:09.788Z,28.23
2022-07-30T15:30:37.165Z,28.33
2022-07-30T15:33:04.594Z,28.38
2022-07-30T15:35:31.841Z,28.37
2022-07-30T15:37:59.559Z,28.40
2022-07-30T15:40:26.629Z,28.37
2022-07-30T15:42:53.857Z,28.31
2022-07-30T15:45:24.595Z,28.32
2022-07-30T15:47:51.804Z,28.29
2022-07-30T15:50:19.105Z,28.26
2022-07-30T15:52:46.173Z,28.23
2022-07-30T15:55:13.394Z,28.26
2022-07-30T15:57:41.994Z,28.24
2022-07-30T16:00:10.805Z,28.21
2022-07-30T16:02:38.121Z,28.14
2022-07-30T16:05:07.746Z,28.17
2022-07-30T16:07:37.626Z,28.13
2022-07-30T16:10:06.038Z,28.12
2022-07-30T16:12:33.091Z,28.10
2022-07-30T16:15:00.037Z,28.06
2022-07-30T16:17:27.084Z,28.09
2022-07-30T16:19:54.085Z,28.05
2022-07-30T16:22:23.597Z,28.04
2022-07-30T16:24:51.654Z,28.10
2022-07-30T16:27:19.207Z,28.09
2022-07-30T16:29:46.221Z,28.06
2022-07-30T16:32:13.361Z,28.04
2022-07-30T16:34:40.319Z,28.00
2022-07-30T16:37:07.352Z,27.93
2022-07-30T16:39:34.332Z,27.97
2022-07-30T16:42:01.656Z,27.97
2022-07-30T16:44:31.958Z,27.95
2022-07-30T16:46:58.999Z,27.89
2022-07-30T16:49:27.186Z,27.84
2022-07-30T16:51:54.296Z,27.82
2022-07-30T16:54:21.547Z,27.82
2022-07-30T16:56:52.634Z,27.76
2022-07-30T16:59:20.769Z,27.79
2022-07-30T17:01:48.676Z,27.78
2022-07-30T17:04:16.210Z,27.77
2022-07-30T17:06:44.408Z,27.71
2022-07-30T17:09:15.680Z,27.70
2022-07-30T17:11:47.959Z,27.65
2022-07-30T17:14:21.320Z,27.55
2022-07-30T17:16:48.308Z,27.51
2022-07-30T17:19:15.289Z,27.47
2022-07-30T17:21:42.286Z,27.41
2022-07-30T17:24:13.632Z,27.31
2022-07-30T17:26:46.596Z,27.31
2022-07-30T17:29:15.913Z,27.26
2022-07-30T17:31:46.848Z,27.19
2022-07-30T17:34:20.036Z,27.20
2022-07-30T17:36:52.309Z,27.20
2022-07-30T17:40:19.722Z,27.19
2022-07-30T17:42:11.588Z,27.16
2022-07-30T17:44:42.020Z,27.14
2022-07-30T17:47:14.577Z,27.12
2022-07-30T17:49:43.042Z,27.08
2022-07-30T17:52:10.175Z,27.03
2022-07-30T17:54:37.235Z,27.01
2022-07-30T17:57:04.434Z,26.98
2022-07-30T17:59:32.053Z,26.95
2022-07-30T18:01:59.978Z,26.87
2022-07-30T18:04:27.794Z,26.80
2022-07-30T18:06:54.888Z,26.80
2022-07-30T18:09:22.012Z,26.76
2022-07-30T18:11:49.210Z,26.71
2022-07-30T18:14:16.662Z,26.64
2022-07-30T18:16:44.097Z,26.59
2022-07-30T18:19:22.872Z,26.51
2022-07-30T18:21:54.715Z,26.46
2022-07-30T18:24:39.981Z,26.39
2022-07-30T18:27:12.433Z,26.29
2022-07-30T18:29:39.582Z,26.25
2022-07-30T18:32:07.157Z,26.22
2022-07-30T18:34:34.757Z,26.14
2022-07-30T18:37:01.955Z,26.14
2022-07-30T18:39:29.123Z,26.07
2022-07-30T18:41:56.125Z,25.96
2022-07-30T18:44:23.125Z,25.90
2022-07-30T18:46:50.105Z,25.83
2022-07-30T18:52:06.595Z,25.69
2022-07-30T18:54:34.878Z,25.64
2022-07-30T18:57:02.040Z,25.58
2022-07-30T18:59:40.909Z,25.50
2022-07-30T19:02:08.964Z,25.38
2022-07-30T19:04:36.120Z,25.38
2022-07-30T19:07:04.249Z,25.32
2022-07-30T19:09:31.326Z,25.26
2022-07-30T19:11:59.606Z,25.22
2022-07-30T19:14:27.111Z,25.17
2022-07-30T19:16:54.667Z,25.12
2022-07-30T19:19:27.304Z,25.02
2022-07-30T19:21:54.937Z,24.97
2022-07-30T19:24:22.150Z,24.92
2022-07-30T19:26:49.354Z,24.93
2022-07-30T19:29:16.985Z,24.84
2022-07-30T19:31:44.103Z,24.74
2022-07-30T19:34:11.701Z,24.74
2022-07-30T19:36:39.818Z,24.64
2022-07-30T19:39:09.439Z,24.60
2022-07-30T19:41:41.903Z,24.55
2022-07-30T19:44:12.993Z,24.49
2022-07-30T19:49:29.636Z,24.36
2022-07-30T19:52:17.764Z,24.28
2022-07-30T19:54:45.135Z,24.39
2022-07-30T19:57:12.600Z,24.36
2022-07-30T19:59:55.609Z,24.29
2022-07-30T20:02:26.684Z,24.28
2022-07-30T20:04:53.862Z,24.18
2022-07-30T20:07:22.025Z,24.18
2022-07-30T20:09:54.709Z,24.09
2022-07-30T20:12:21.745Z,24.08
2022-07-30T20:14:51.562Z,23.98
2022-07-30T20:17:18.678Z,23.95
2022-07-30T20:19:48.022Z,23.97
2022-07-30T20:22:17.117Z,23.91
2022-07-30T20:24:47.898Z,23.86
2022-07-30T20:27:35.712Z,23.80
2022-07-30T20:30:05.610Z,23.83
2022-07-30T20:32:32.706Z,23.78
2022-07-30T20:34:59.710Z,23.73
2022-07-30T20:37:27.862Z,23.73
2022-07-30T20:39:55.853Z,23.70
2022-07-30T20:42:24.547Z,23.69
2022-07-30T20:44:56.925Z,23.65
2022-07-30T20:47:37.462Z,23.61
2022-07-30T20:50:09.974Z,23.59
2022-07-30T20:52:40.329Z,23.55
2022-07-30T20:55:10.119Z,23.53
2022-07-30T20:57:57.050Z,23.47
2022-07-30T21:00:28.662Z,23.42
2022-07-30T21:02:55.776Z,23.35
2022-07-30T21:05:22.861Z,23.34
2022-07-30T21:07:56.918Z,23.31
2022-07-30T21:10:25.304Z,23.28
2022-07-30T21:12:53.324Z,23.24
2022-07-30T21:15:32.898Z,23.21
2022-07-30T21:18:02.468Z,23.16
2022-07-30T21:20:31.766Z,23.16
2022-07-30T21:23:12.238Z,23.14
2022-07-30T21:26:00.752Z,23.18
2022-07-30T21:28:29.544Z,23.19
2022-07-30T21:30:57.634Z,23.19
2022-07-30T21:33:31.303Z,23.18
2022-07-30T21:36:00.243Z,23.17
2022-07-30T21:38:28.694Z,23.12
2022-07-30T21:40:59.407Z,23.09
2022-07-30T21:43:30.083Z,23.09
2022-07-30T21:45:59.629Z,23.08
2022-07-30T21:48:27.061Z,23.08
2022-07-30T21:50:55.799Z,23.04
2022-07-30T21:53:29.885Z,23.02
2022-07-30T21:56:12.073Z,23.01
2022-07-30T21:58:39.327Z,22.95
2022-07-30T22:01:17.719Z,22.98
2022-07-30T22:04:02.932Z,22.98
2022-07-30T22:06:38.071Z,22.96
2022-07-30T22:09:18.615Z,22.91
2022-07-30T22:11:54.236Z,22.82
2022-07-30T22:14:21.407Z,22.81
2022-07-30T22:16:48.484Z,22.78
2022-07-30T22:19:15.812Z,22.75
2022-07-30T22:21:46.494Z,22.72
2022-07-30T22:24:29.555Z,22.67
2022-07-30T22:27:14.552Z,22.69
2022-07-30T22:29:43.088Z,22.64
2022-07-30T22:32:11.918Z,22.59
2022-07-30T22:34:39.484Z,22.50
2022-07-30T22:37:12.542Z,22.47
2022-07-30T22:39:50.225Z,22.43
2022-07-30T22:42:18.568Z,22.45
2022-07-30T22:44:47.587Z,22.43
2022-07-30T22:47:21.840Z,22.35
2022-07-30T22:50:05.228Z,22.41
2022-07-30T22:52:48.974Z,22.41
2022-07-30T22:55:24.346Z,22.41
2022-07-30T22:57:52.836Z,22.36
2022-07-30T23:00:28.102Z,22.34
2022-07-30T23:02:57.051Z,22.39
2022-07-30T23:05:25.155Z,22.34
2022-07-30T23:07:52.478Z,22.32
2022-07-30T23:10:20.302Z,22.27
2022-07-30T23:12:15.037Z,24.43
2022-07-30T23:12:51.158Z,22.27
2022-07-30T23:15:20.053Z,22.25
2022-07-30T23:17:48.140Z,22.26
2022-07-30T23:20:20.241Z,22.26
2022-07-30T23:22:48.500Z,22.24
2022-07-30T23:25:15.519Z,22.22
2022-07-30T23:27:43.335Z,22.19
2022-07-30T23:30:12.314Z,22.17
2022-07-30T23:32:42.514Z,22.14
2022-07-30T23:35:10.282Z,22.13
2022-07-30T23:37:48.567Z,22.10
2022-07-30T23:40:18.427Z,22.06
2022-07-30T23:42:46.037Z,22.02
2022-07-30T23:45:13.273Z,21.99
2022-07-30T23:47:54.650Z,21.96
2022-07-30T23:50:29.681Z,21.93
2022-07-30T23:52:56.812Z,21.89
2022-07-30T23:55:24.206Z,21.82
2022-07-30T23:57:51.224Z,21.79
